Array ( [0] => 2015/03/06 23:00 [1] => LEIB 062300Z 00000KT CAVOK 07/04 Q1032 NOSIG ) Sa Trinxa - Ibiza
picture

Partner

adSpot
Chicaria Records
Ibiza global radio
Ibiza Sonica
Partysan
Pioneer Pro DJ